createdAt,value
2024-04-12T00:02:30.662Z,102536.13
2024-04-12T00:04:59.821Z,102534.81
2024-04-12T00:07:26.984Z,102528.81
2024-04-12T00:09:55.822Z,102523.78
2024-04-12T00:12:29.600Z,102554.84
2024-04-12T00:15:02.805Z,102554.84
2024-04-12T00:17:33.057Z,102542.09
2024-04-12T00:20:21.314Z,102544.38
2024-04-12T00:22:50.221Z,102527.28
2024-04-12T00:25:16.997Z,102535.66
2024-04-12T00:27:43.528Z,102556.34
2024-04-12T00:30:10.657Z,102543.38
2024-04-12T00:32:37.969Z,102551.34
2024-04-12T00:35:07.967Z,102556.53
2024-04-12T00:37:35.286Z,102548.09
2024-04-12T00:40:02.012Z,102551.50
2024-04-12T00:42:33.454Z,102556.78
2024-04-12T00:45:04.419Z,102545.44
2024-04-12T00:47:35.264Z,102545.88
2024-04-12T00:50:04.955Z,102524.84
2024-04-12T00:52:35.391Z,102543.59
2024-04-12T00:55:10.423Z,102539.81
2024-04-12T00:57:39.040Z,102537.44
2024-04-12T01:00:11.938Z,102526.94
2024-04-12T01:02:43.587Z,102543.88
2024-04-12T01:05:16.123Z,102558.72
2024-04-12T01:07:52.767Z,102546.91
2024-04-12T01:10:26.371Z,102541.09
2024-04-12T01:12:58.734Z,102539.34
2024-04-12T01:15:38.874Z,102527.44
2024-04-12T01:18:13.536Z,102538.06
2024-04-12T01:20:41.437Z,102524.22
2024-04-12T01:23:08.297Z,102497.56
2024-04-12T01:25:35.868Z,102527.78
2024-04-12T01:28:05.920Z,102531.25
2024-04-12T01:30:32.943Z,102515.31
2024-04-12T01:33:00.438Z,102516.44
2024-04-12T01:35:35.228Z,102509.81
2024-04-12T01:38:21.828Z,102513.00
2024-04-12T01:41:06.670Z,102478.66
2024-04-12T01:43:39.639Z,102484.56
2024-04-12T01:46:09.235Z,102496.47
2024-04-12T01:48:37.546Z,102520.91
2024-04-12T01:51:05.487Z,102519.63
2024-04-12T01:53:39.223Z,102503.97
2024-04-12T01:56:06.444Z,102506.25
2024-04-12T01:58:35.563Z,102507.63
2024-04-12T02:01:05.133Z,102500.28
2024-04-12T02:03:35.461Z,102501.91
2024-04-12T02:06:06.692Z,102494.41
2024-04-12T02:08:34.553Z,102505.13
2024-04-12T02:11:07.309Z,102506.25
2024-04-12T02:13:38.987Z,102508.75
2024-04-12T02:16:07.147Z,102517.38
2024-04-12T02:18:35.255Z,102507.13
2024-04-12T02:21:11.899Z,102520.50
2024-04-12T02:23:40.128Z,102510.25
2024-04-12T02:26:06.840Z,102514.00
2024-04-12T02:28:41.289Z,102504.03
2024-04-12T02:46:42.397Z,102504.94
2024-04-12T02:49:13.079Z,102494.94
2024-04-12T02:51:48.749Z,102508.88
2024-04-12T02:54:15.877Z,102508.53
2024-04-12T02:56:45.943Z,102494.66
2024-04-12T02:59:15.139Z,102514.44
2024-04-12T03:01:42.516Z,102519.41
2024-04-12T03:04:11.425Z,102516.00
2024-04-12T03:06:39.617Z,102515.47
2024-04-12T03:09:07.004Z,102495.50
2024-04-12T03:11:37.539Z,102477.63
2024-04-12T03:14:12.009Z,102509.75
2024-04-12T03:16:43.907Z,102505.94
2024-04-12T03:19:19.507Z,102512.09
2024-04-12T03:21:52.429Z,102509.03
2024-04-12T03:24:19.795Z,102513.13
2024-04-12T03:26:49.052Z,102518.94
2024-04-12T03:29:18.182Z,102508.81
2024-04-12T03:31:48.530Z,102517.31
2024-04-12T03:34:16.005Z,102517.56
2024-04-12T03:36:48.599Z,102504.53
2024-04-12T03:39:24.369Z,102506.63
2024-04-12T03:41:52.724Z,102520.84
2024-04-12T03:44:22.336Z,102505.59
2024-04-12T03:46:52.280Z,102503.66
2024-04-12T03:49:23.422Z,102511.38
2024-04-12T03:51:55.601Z,102512.00
2024-04-12T03:54:24.044Z,102509.56
2024-04-12T03:56:51.668Z,102501.06
2024-04-12T03:59:19.522Z,102509.56
2024-04-12T04:01:47.118Z,102509.56
2024-04-12T04:04:18.519Z,102509.22
2024-04-12T04:06:47.320Z,102514.34
2024-04-12T04:09:14.650Z,102514.09
2024-04-12T04:11:43.853Z,102514.94
2024-04-12T04:14:11.252Z,102506.13
2024-04-12T04:16:38.113Z,102513.75
2024-04-12T04:19:05.093Z,102516.34
2024-04-12T04:21:34.575Z,102521.84
2024-04-12T04:24:10.009Z,102514.09
2024-04-12T04:26:38.119Z,102515.13
2024-04-12T04:29:10.688Z,102517.38
2024-04-12T04:31:51.486Z,102518.16
2024-04-12T04:34:23.607Z,102504.53
2024-04-12T04:36:51.075Z,102511.28
2024-04-12T04:39:19.057Z,102515.63
2024-04-12T04:41:51.391Z,102504.63
2024-04-12T04:44:18.889Z,102508.88
2024-04-12T04:46:50.511Z,102498.19
2024-04-12T04:49:22.932Z,102505.06
2024-04-12T04:51:52.564Z,102501.94
2024-04-12T04:54:22.969Z,102497.00
2024-04-12T04:57:03.109Z,102486.28
2024-04-12T04:59:33.793Z,102488.72
2024-04-12T05:02:02.131Z,102490.38
2024-04-12T05:04:33.873Z,102503.75
2024-04-12T05:07:00.541Z,102487.88
2024-04-12T05:09:28.895Z,102482.31
2024-04-12T05:11:58.650Z,102472.56
2024-04-12T05:14:36.028Z,102472.06
2024-04-12T05:17:11.003Z,102490.44
2024-04-12T05:19:42.559Z,102485.25
2024-04-12T05:22:39.844Z,102482.50
2024-04-12T05:25:06.791Z,102478.38
2024-04-12T05:27:34.331Z,102497.91
2024-04-12T05:30:02.838Z,102466.66
2024-04-12T05:32:34.348Z,102496.53
2024-04-12T05:35:03.150Z,102488.69
2024-04-12T05:37:37.317Z,102487.56
2024-04-12T05:40:06.157Z,102468.66
2024-04-12T05:42:32.800Z,102480.28
2024-04-12T05:45:05.992Z,102461.41
2024-04-12T05:47:41.714Z,102481.63
2024-04-12T05:50:08.614Z,102470.53
2024-04-12T05:52:36.674Z,102484.72
2024-04-12T05:55:12.124Z,102469.66
2024-04-12T05:57:38.865Z,102462.72
2024-04-12T06:00:11.674Z,102491.41
2024-04-12T06:02:38.932Z,102478.53
2024-04-12T06:05:47.232Z,102451.91
2024-04-12T06:08:16.821Z,102446.66
2024-04-12T06:10:50.337Z,102462.47
2024-04-12T06:13:18.702Z,102439.75
2024-04-12T06:15:48.177Z,102461.91
2024-04-12T06:18:33.116Z,102446.16
2024-04-12T06:29:11.561Z,102453.50
2024-04-12T06:31:42.936Z,102474.53
2024-04-12T06:34:14.345Z,102454.09
2024-04-12T06:36:47.050Z,102461.03
2024-04-12T06:39:27.578Z,102450.78
2024-04-12T06:41:55.337Z,102468.44
2024-04-12T06:44:58.757Z,102466.59
2024-04-12T06:47:27.307Z,102474.75
2024-04-12T06:50:16.428Z,102472.19
2024-04-12T06:52:43.193Z,102480.88
2024-04-12T06:55:18.496Z,102495.72
2024-04-12T06:57:45.780Z,102486.81
2024-04-12T07:00:21.655Z,102487.34
2024-04-12T07:03:17.793Z,102497.41
2024-04-12T07:05:49.076Z,102468.81
2024-04-12T07:08:17.703Z,102503.75
2024-04-12T07:10:50.049Z,102496.50
2024-04-12T07:13:18.026Z,102489.00
2024-04-12T07:15:50.728Z,102488.50
2024-04-12T07:18:18.006Z,102491.56
2024-04-12T07:20:50.104Z,102483.88
2024-04-12T07:23:17.326Z,102491.88
2024-04-12T07:25:46.936Z,102504.72
2024-04-12T07:28:16.927Z,102507.69
2024-04-12T07:30:45.931Z,102487.72
2024-04-12T07:33:13.999Z,102497.09
2024-04-12T07:35:41.846Z,102492.97
2024-04-12T07:38:09.709Z,102488.13
2024-04-12T07:40:41.249Z,102489.50
2024-04-12T07:43:12.284Z,102481.78
2024-04-12T07:45:42.075Z,102483.22
2024-04-12T07:48:21.604Z,102499.34
2024-04-12T07:50:48.688Z,102487.88
2024-04-12T07:53:24.611Z,102469.88
2024-04-12T07:56:16.902Z,102459.28
2024-04-12T07:59:17.824Z,102478.31
2024-04-12T08:01:50.347Z,102451.53
2024-04-12T08:04:27.294Z,102458.59
2024-04-12T08:06:58.794Z,102464.09
2024-04-12T08:09:36.598Z,102487.38
2024-04-12T08:12:17.041Z,102477.84
2024-04-12T08:14:54.914Z,102484.22
2024-04-12T08:17:41.501Z,102483.56
2024-04-12T08:20:27.017Z,102460.50
2024-04-12T08:22:56.855Z,102476.91
2024-04-12T08:25:28.499Z,102461.47
2024-04-12T08:27:56.156Z,102475.53
2024-04-12T08:30:23.577Z,102465.06
2024-04-12T08:32:50.995Z,102453.38
2024-04-12T08:35:22.072Z,102469.28
2024-04-12T08:37:52.952Z,102462.75
2024-04-12T08:40:26.421Z,102465.84
2024-04-12T08:42:58.788Z,102460.72
2024-04-12T08:45:31.819Z,102465.75
2024-04-12T08:48:04.674Z,102440.78
2024-04-12T08:50:37.044Z,102438.25
2024-04-12T08:53:14.501Z,102440.69
2024-04-12T08:55:44.104Z,102441.31
2024-04-12T08:58:12.314Z,102455.59
2024-04-12T09:00:40.974Z,102463.28
2024-04-12T09:03:29.018Z,102453.56
2024-04-12T09:06:00.946Z,102436.72
2024-04-12T09:08:32.744Z,102441.06
2024-04-12T09:11:08.186Z,102448.84
2024-04-12T09:13:48.318Z,102448.94
2024-04-12T09:16:20.754Z,102470.72
2024-04-12T09:18:52.499Z,102479.16
2024-04-12T09:24:32.828Z,102442.31
2024-04-12T09:27:10.174Z,102459.47
2024-04-12T09:29:45.165Z,102466.00
2024-04-12T09:32:31.465Z,102451.56
2024-04-12T09:35:03.769Z,102451.38
2024-04-12T09:37:31.933Z,102461.69
2024-04-12T09:40:02.984Z,102443.06
2024-04-12T09:42:54.697Z,102452.69
2024-04-12T09:45:23.889Z,102441.72
2024-04-12T09:48:11.020Z,102437.53
2024-04-12T09:51:05.549Z,102434.75
2024-04-12T09:53:51.214Z,102426.13
2024-04-12T09:56:36.489Z,102435.22
2024-04-12T09:59:40.601Z,102431.03
2024-04-12T10:02:28.918Z,102428.19
2024-04-12T10:05:20.087Z,102419.91
2024-04-12T10:08:05.658Z,102437.78
2024-04-12T10:10:51.077Z,102426.81
2024-04-12T10:13:36.860Z,102419.88
2024-04-12T10:16:47.247Z,102423.88
2024-04-12T10:19:33.067Z,102408.38
2024-04-12T10:22:34.432Z,102408.19
2024-04-12T10:25:23.922Z,102408.66
2024-04-12T10:28:12.437Z,102395.72
2024-04-12T10:31:05.459Z,102397.72
2024-04-12T10:34:25.861Z,102405.03
2024-04-12T10:37:13.223Z,102395.38
2024-04-12T10:39:46.656Z,102392.84
2024-04-12T10:42:27.465Z,102393.50
2024-04-12T10:49:05.726Z,102364.00
2024-04-12T10:51:37.263Z,102369.94
2024-04-12T10:54:05.987Z,102355.88
2024-04-12T10:56:32.936Z,102371.56
2024-04-12T10:59:45.652Z,102356.84
2024-04-12T11:02:12.723Z,102314.31
2024-04-12T11:05:00.677Z,102347.94
2024-04-12T11:07:28.990Z,102347.19
2024-04-12T11:10:04.960Z,102355.19
2024-04-12T11:12:47.286Z,102344.91
2024-04-12T11:15:34.038Z,102357.69
2024-04-12T11:18:23.794Z,102361.59
2024-04-12T11:21:21.127Z,102338.97
2024-04-12T11:24:23.286Z,102361.59
2024-04-12T11:27:08.681Z,102347.19
2024-04-12T11:30:09.761Z,102347.59
2024-04-12T11:32:38.842Z,102351.31
2024-04-12T11:35:06.774Z,102345.44
2024-04-12T11:37:33.534Z,102331.19
2024-04-12T11:40:05.305Z,102351.69
2024-04-12T11:42:34.273Z,102335.72
2024-04-12T11:46:16.041Z,102329.69
2024-04-12T11:48:44.537Z,102329.44
2024-04-12T11:51:11.498Z,102324.53
2024-04-12T11:53:39.264Z,102305.84
2024-04-12T11:56:06.168Z,102323.53
2024-04-12T11:58:32.782Z,102286.53
2024-04-12T12:08:41.919Z,102286.72
2024-04-12T12:11:15.396Z,102287.28
2024-04-12T12:13:45.622Z,102278.56
2024-04-12T12:16:19.909Z,102260.97
2024-04-12T12:18:46.756Z,102258.00
2024-04-12T12:21:15.449Z,102272.81
2024-04-12T12:29:43.739Z,102257.44
2024-04-12T12:32:10.887Z,102263.25
2024-04-12T12:38:34.163Z,102259.53
2024-04-12T12:41:01.392Z,102249.91
2024-04-12T12:43:31.070Z,102228.69
2024-04-12T12:46:01.535Z,102239.31
2024-04-12T12:48:31.314Z,102220.69
2024-04-12T12:50:58.930Z,102227.75
2024-04-12T12:54:16.866Z,102201.19
2024-04-12T12:57:40.023Z,102242.63
2024-04-12T13:00:08.207Z,102243.38
2024-04-12T13:02:39.722Z,102225.59
2024-04-12T13:05:32.387Z,102199.13
2024-04-12T13:08:00.160Z,102209.13
2024-04-12T13:10:28.967Z,102219.44
2024-04-12T13:13:29.045Z,102186.28
2024-04-12T13:15:55.898Z,102184.56
2024-04-12T13:22:17.364Z,102204.16
2024-04-12T13:24:45.281Z,102181.00
2024-04-12T13:27:16.258Z,102195.09
2024-04-12T13:37:56.591Z,102157.75
2024-04-12T13:48:10.097Z,102116.91
2024-04-12T13:50:55.898Z,102113.97
2024-04-12T13:53:35.164Z,102120.50
2024-04-12T13:56:34.421Z,102146.88
2024-04-12T13:59:06.178Z,102128.44
2024-04-12T14:09:32.993Z,102155.50
2024-04-12T14:11:59.631Z,102156.94
2024-04-12T14:14:26.323Z,102131.47
2024-04-12T14:20:21.943Z,102100.81
2024-04-12T14:23:42.319Z,102117.38
2024-04-12T14:26:10.869Z,102076.56
2024-04-12T14:28:40.689Z,102083.03
2024-04-12T14:31:10.615Z,102104.69
2024-04-12T14:33:39.951Z,102086.72
2024-04-12T14:36:55.418Z,102112.59
2024-04-12T14:39:30.854Z,102097.34
2024-04-12T14:41:58.372Z,102106.25
2024-04-12T14:44:25.348Z,102079.78
2024-04-12T14:46:55.880Z,102075.53
2024-04-12T14:53:25.161Z,102068.38
2024-04-12T14:55:54.411Z,102062.47
2024-04-12T14:58:23.413Z,102047.78
2024-04-12T15:04:55.484Z,102052.50
2024-04-12T15:07:43.864Z,102054.47
2024-04-12T15:10:29.770Z,102073.63
2024-04-12T15:19:42.798Z,102054.44
2024-04-12T15:25:35.117Z,102064.81
2024-04-12T15:28:20.463Z,102070.44
2024-04-12T15:34:04.915Z,102067.72
2024-04-12T15:37:05.544Z,102077.88
2024-04-12T15:39:50.815Z,102080.16
2024-04-12T15:42:40.094Z,102070.97
2024-04-12T15:45:25.982Z,102075.22
2024-04-12T15:47:55.883Z,102060.28
2024-04-12T15:50:22.599Z,102053.63
2024-04-12T15:56:06.802Z,102039.06
2024-04-12T15:59:26.415Z,102066.53
2024-04-12T16:02:11.918Z,102055.69
2024-04-12T16:04:57.337Z,102038.97
2024-04-12T16:07:42.741Z,102039.94
2024-04-12T16:10:31.340Z,102024.63
2024-04-12T16:13:03.745Z,102036.75
2024-04-12T16:15:33.191Z,102027.44
2024-04-12T16:18:38.911Z,102018.22
2024-04-12T16:21:05.841Z,102022.63
2024-04-12T16:23:35.704Z,102017.41
2024-04-12T16:26:08.887Z,102016.94
2024-04-12T16:28:38.997Z,102021.22
2024-04-12T16:31:12.647Z,101999.34
2024-04-12T16:33:40.025Z,101985.09
2024-04-12T16:36:08.049Z,102031.69
2024-04-12T16:42:43.748Z,102002.38
2024-04-12T16:49:07.861Z,101977.28
2024-04-12T16:51:51.799Z,101989.97
2024-04-12T16:54:18.598Z,101982.22
2024-04-12T16:56:48.359Z,101979.38
2024-04-12T17:00:16.514Z,101980.63
2024-04-12T17:03:55.767Z,102000.63
2024-04-12T17:06:25.298Z,101990.50
2024-04-12T17:09:11.897Z,101996.00
2024-04-12T17:11:39.504Z,101994.81
2024-04-12T17:14:06.755Z,101997.91
2024-04-12T17:20:36.179Z,101978.69
2024-04-12T17:23:13.070Z,101979.69
2024-04-12T17:25:44.554Z,101990.63
2024-04-12T17:28:18.999Z,101969.69
2024-04-12T17:31:01.668Z,101990.63
2024-04-12T17:33:31.141Z,101977.34
2024-04-12T17:35:58.714Z,101969.41
2024-04-12T17:42:12.993Z,101982.22
2024-04-12T17:48:04.156Z,101963.06
2024-04-12T17:50:32.864Z,101983.00
2024-04-12T17:54:02.620Z,101993.47
2024-04-12T17:56:29.316Z,101987.09
2024-04-12T17:58:55.911Z,101993.97
2024-04-12T18:01:24.341Z,101997.78
2024-04-12T18:04:10.850Z,101986.44
2024-04-12T18:06:39.838Z,101962.81
2024-04-12T18:09:54.020Z,101997.16
2024-04-12T18:12:20.800Z,102002.81
2024-04-12T18:14:47.509Z,102005.03
2024-04-12T18:21:39.906Z,102000.72
2024-04-12T18:24:06.678Z,102004.69
2024-04-12T18:26:33.267Z,102001.38
2024-04-12T18:28:59.997Z,101997.34
2024-04-12T18:31:28.374Z,102008.50
2024-04-12T18:34:28.609Z,101980.34
2024-04-12T18:37:33.679Z,102000.28
2024-04-12T18:40:35.048Z,101987.38
2024-04-12T18:43:31.264Z,102004.44
2024-04-12T18:46:02.678Z,101986.63
2024-04-12T18:48:55.388Z,101986.25
2024-04-12T18:51:41.200Z,102006.91
2024-04-12T18:54:15.974Z,101986.38
2024-04-12T18:56:42.782Z,101986.75
2024-04-12T18:59:09.694Z,102022.78
2024-04-12T19:02:15.888Z,101999.53
2024-04-12T19:04:48.973Z,102020.34
2024-04-12T19:07:20.883Z,101988.81
2024-04-12T19:10:18.608Z,101980.69
2024-04-12T19:16:16.977Z,102021.44
2024-04-12T19:18:46.606Z,102003.09
2024-04-12T19:21:13.953Z,102025.13
2024-04-12T19:23:40.800Z,102028.56
2024-04-12T19:40:12.875Z,101984.25
2024-04-12T19:54:38.664Z,102003.03
2024-04-12T19:57:41.006Z,102022.38
2024-04-12T20:01:36.128Z,102009.97
2024-04-12T20:11:29.709Z,102001.47
2024-04-12T21:11:30.603Z,101965.91
2024-04-12T21:14:20.636Z,101963.31
2024-04-12T21:17:10.174Z,101974.22
2024-04-12T21:23:43.586Z,101961.72
2024-04-12T21:26:34.513Z,101939.00
2024-04-12T21:29:09.219Z,101956.63
2024-04-12T21:31:49.107Z,101937.38
2024-04-12T21:34:18.988Z,101939.44
2024-04-12T21:36:46.398Z,101961.91
2024-04-12T21:39:24.117Z,101966.53
2024-04-12T21:42:02.339Z,101950.38
2024-04-12T21:44:42.099Z,101957.28
2024-04-12T21:47:22.003Z,101944.00
2024-04-12T21:53:44.257Z,101967.88
2024-04-12T21:56:27.402Z,101950.53
2024-04-12T21:59:16.317Z,101959.19
2024-04-12T22:01:53.896Z,101942.22
2024-04-12T22:04:37.706Z,101974.63
2024-04-12T22:07:53.195Z,101978.84
2024-04-12T22:10:44.229Z,101968.66
2024-04-12T22:21:24.328Z,101961.69
2024-04-12T22:24:04.296Z,101931.94
2024-04-12T22:28:02.741Z,101920.72
2024-04-12T22:29:43.262Z,101951.25
2024-04-12T22:32:30.370Z,101954.03
2024-04-12T22:35:04.622Z,101942.16
2024-04-12T22:49:54.620Z,101927.63
2024-04-12T22:56:36.013Z,101912.72
2024-04-12T22:59:13.294Z,101913.78
2024-04-12T23:01:40.103Z,101944.44
2024-04-12T23:04:39.855Z,101921.00
2024-04-12T23:07:42.029Z,101918.09
2024-04-12T23:17:28.856Z,101914.94
2024-04-12T23:26:47.893Z,101922.72
2024-04-12T23:33:35.860Z,101927.47
2024-04-12T23:36:04.438Z,101906.97
2024-04-12T23:38:31.220Z,101922.28
2024-04-12T23:44:49.066Z,101901.91
2024-04-12T23:47:15.956Z,101919.06
2024-04-12T23:49:43.110Z,101924.16
2024-04-12T23:52:09.841Z,101920.16
2024-04-12T23:54:38.216Z,101936.03
2024-04-12T23:58:03.867Z,101928.16
